sensor_id;sensor_type;location;lat;lon;timestamp;P1;durP1;ratioP1;P2;durP2;ratioP2
65737;SDS011;52478;51.844;6.582;2022-10-04T00:00:57;6.07;;;3.17;;
65737;SDS011;52478;51.844;6.582;2022-10-04T00:03:28;6.72;;;3.17;;
65737;SDS011;52478;51.844;6.582;2022-10-04T00:06:01;6.80;;;2.97;;
65737;SDS011;52478;51.844;6.582;2022-10-04T00:08:30;6.70;;;2.97;;
65737;SDS011;52478;51.844;6.582;2022-10-04T00:11:03;9.02;;;2.92;;
65737;SDS011;52478;51.844;6.582;2022-10-04T00:13:32;6.85;;;3.00;;
65737;SDS011;52478;51.844;6.582;2022-10-04T00:16:01;7.05;;;2.88;;
65737;SDS011;52478;51.844;6.582;2022-10-04T00:18:28;6.85;;;3.05;;
65737;SDS011;52478;51.844;6.582;2022-10-04T00:21:02;6.93;;;2.60;;
65737;SDS011;52478;51.844;6.582;2022-10-04T00:26:09;9.77;;;3.95;;
65737;SDS011;52478;51.844;6.582;2022-10-04T00:28:43;7.30;;;3.10;;
65737;SDS011;52478;51.844;6.582;2022-10-04T00:31:21;6.07;;;2.80;;
65737;SDS011;52478;51.844;6.582;2022-10-04T00:33:50;7.47;;;2.75;;
65737;SDS011;52478;51.844;6.582;2022-10-04T00:36:38;6.88;;;2.97;;
65737;SDS011;52478;51.844;6.582;2022-10-04T00:45:03;7.53;;;2.80;;
65737;SDS011;52478;51.844;6.582;2022-10-04T00:47:52;6.82;;;3.28;;
65737;SDS011;52478;51.844;6.582;2022-10-04T00:50:25;6.60;;;3.20;;
65737;SDS011;52478;51.844;6.582;2022-10-04T00:52:56;7.10;;;2.95;;
65737;SDS011;52478;51.844;6.582;2022-10-04T00:55:25;7.82;;;3.20;;
65737;SDS011;52478;51.844;6.582;2022-10-04T00:57:59;5.85;;;2.50;;
65737;SDS011;52478;51.844;6.582;2022-10-04T01:00:28;6.85;;;2.78;;
65737;SDS011;52478;51.844;6.582;2022-10-04T01:02:57;6.50;;;2.65;;
65737;SDS011;52478;51.844;6.582;2022-10-04T01:05:28;7.57;;;3.10;;
65737;SDS011;52478;51.844;6.582;2022-10-04T01:08:03;6.53;;;2.53;;
65737;SDS011;52478;51.844;6.582;2022-10-04T01:10:35;6.72;;;2.80;;
65737;SDS011;52478;51.844;6.582;2022-10-04T01:13:08;7.18;;;3.40;;
65737;SDS011;52478;51.844;6.582;2022-10-04T01:15:39;8.68;;;2.78;;
65737;SDS011;52478;51.844;6.582;2022-10-04T01:18:10;7.65;;;2.90;;
65737;SDS011;52478;51.844;6.582;2022-10-04T01:20:39;7.53;;;3.28;;
65737;SDS011;52478;51.844;6.582;2022-10-04T01:29:07;6.57;;;2.72;;
65737;SDS011;52478;51.844;6.582;2022-10-04T01:31:36;6.60;;;2.88;;
65737;SDS011;52478;51.844;6.582;2022-10-04T01:34:04;7.38;;;3.00;;
65737;SDS011;52478;51.844;6.582;2022-10-04T01:36:32;7.25;;;2.55;;
65737;SDS011;52478;51.844;6.582;2022-10-04T01:39:00;7.13;;;2.72;;
65737;SDS011;52478;51.844;6.582;2022-10-04T01:41:27;6.15;;;2.55;;
65737;SDS011;52478;51.844;6.582;2022-10-04T01:43:58;6.32;;;2.83;;
65737;SDS011;52478;51.844;6.582;2022-10-04T01:46:27;5.97;;;2.55;;
65737;SDS011;52478;51.844;6.582;2022-10-04T01:48:58;6.95;;;2.63;;
65737;SDS011;52478;51.844;6.582;2022-10-04T01:51:28;7.28;;;2.70;;
65737;SDS011;52478;51.844;6.582;2022-10-04T01:53:59;7.03;;;2.67;;
65737;SDS011;52478;51.844;6.582;2022-10-04T01:56:30;7.70;;;2.95;;
65737;SDS011;52478;51.844;6.582;2022-10-04T01:59:05;6.70;;;2.70;;
65737;SDS011;52478;51.844;6.582;2022-10-04T02:01:39;6.97;;;2.83;;
65737;SDS011;52478;51.844;6.582;2022-10-04T02:04:12;6.88;;;2.65;;
65737;SDS011;52478;51.844;6.582;2022-10-04T02:06:43;6.32;;;2.72;;
65737;SDS011;52478;51.844;6.582;2022-10-04T02:09:12;6.20;;;2.70;;
65737;SDS011;52478;51.844;6.582;2022-10-04T02:11:40;7.72;;;2.67;;
65737;SDS011;52478;51.844;6.582;2022-10-04T02:14:11;6.05;;;2.58;;
65737;SDS011;52478;51.844;6.582;2022-10-04T02:16:42;6.85;;;2.85;;
65737;SDS011;52478;51.844;6.582;2022-10-04T02:19:11;7.07;;;2.70;;
65737;SDS011;52478;51.844;6.582;2022-10-04T02:21:39;7.00;;;2.85;;
65737;SDS011;52478;51.844;6.582;2022-10-04T02:24:06;6.50;;;2.53;;
65737;SDS011;52478;51.844;6.582;2022-10-04T02:26:34;7.82;;;2.72;;
65737;SDS011;52478;51.844;6.582;2022-10-04T02:29:00;6.18;;;2.67;;
65737;SDS011;52478;51.844;6.582;2022-10-04T02:31:28;6.88;;;2.92;;
65737;SDS011;52478;51.844;6.582;2022-10-04T02:34:13;6.30;;;2.60;;
65737;SDS011;52478;51.844;6.582;2022-10-04T02:36:39;6.40;;;2.83;;
65737;SDS011;52478;51.844;6.582;2022-10-04T02:39:08;6.28;;;2.90;;
65737;SDS011;52478;51.844;6.582;2022-10-04T02:41:40;9.48;;;2.85;;
65737;SDS011;52478;51.844;6.582;2022-10-04T02:44:10;6.63;;;3.10;;
65737;SDS011;52478;51.844;6.582;2022-10-04T02:46:45;6.47;;;2.75;;
65737;SDS011;52478;51.844;6.582;2022-10-04T02:49:17;6.80;;;2.50;;
65737;SDS011;52478;51.844;6.582;2022-10-04T02:51:52;6.20;;;3.08;;
65737;SDS011;52478;51.844;6.582;2022-10-04T02:54:26;7.63;;;2.65;;
65737;SDS011;52478;51.844;6.582;2022-10-04T02:56:54;7.57;;;2.90;;
65737;SDS011;52478;51.844;6.582;2022-10-04T02:59:23;6.93;;;2.45;;
65737;SDS011;52478;51.844;6.582;2022-10-04T03:01:51;6.78;;;2.88;;
65737;SDS011;52478;51.844;6.582;2022-10-04T03:04:19;9.10;;;3.08;;
65737;SDS011;52478;51.844;6.582;2022-10-04T03:06:49;6.32;;;3.03;;
65737;SDS011;52478;51.844;6.582;2022-10-04T03:09:16;6.38;;;2.60;;
65737;SDS011;52478;51.844;6.582;2022-10-04T03:11:45;6.53;;;2.83;;
65737;SDS011;52478;51.844;6.582;2022-10-04T03:14:15;6.00;;;3.13;;
65737;SDS011;52478;51.844;6.582;2022-10-04T03:16:44;8.15;;;3.00;;
65737;SDS011;52478;51.844;6.582;2022-10-04T03:19:15;6.50;;;2.60;;
65737;SDS011;52478;51.844;6.582;2022-10-04T03:21:44;6.38;;;3.10;;
65737;SDS011;52478;51.844;6.582;2022-10-04T03:24:13;6.53;;;2.90;;
65737;SDS011;52478;51.844;6.582;2022-10-04T03:26:43;7.38;;;2.90;;
65737;SDS011;52478;51.844;6.582;2022-10-04T03:29:13;6.40;;;2.83;;
65737;SDS011;52478;51.844;6.582;2022-10-04T03:31:42;6.25;;;2.95;;
65737;SDS011;52478;51.844;6.582;2022-10-04T03:34:16;7.18;;;2.90;;
65737;SDS011;52478;51.844;6.582;2022-10-04T03:36:45;6.00;;;2.80;;
65737;SDS011;52478;51.844;6.582;2022-10-04T03:39:16;7.93;;;2.90;;
65737;SDS011;52478;51.844;6.582;2022-10-04T03:41:45;7.43;;;2.88;;
65737;SDS011;52478;51.844;6.582;2022-10-04T03:44:13;6.45;;;2.83;;
65737;SDS011;52478;51.844;6.582;2022-10-04T03:46:42;6.88;;;2.65;;
65737;SDS011;52478;51.844;6.582;2022-10-04T03:49:09;7.38;;;3.10;;
65737;SDS011;52478;51.844;6.582;2022-10-04T03:51:40;8.10;;;3.25;;
65737;SDS011;52478;51.844;6.582;2022-10-04T03:54:12;7.32;;;2.78;;
65737;SDS011;52478;51.844;6.582;2022-10-04T03:56:42;7.05;;;2.83;;
65737;SDS011;52478;51.844;6.582;2022-10-04T03:59:10;6.35;;;2.90;;
65737;SDS011;52478;51.844;6.582;2022-10-04T04:01:42;6.70;;;2.85;;
65737;SDS011;52478;51.844;6.582;2022-10-04T04:04:17;8.13;;;3.38;;
65737;SDS011;52478;51.844;6.582;2022-10-04T04:06:52;6.68;;;3.13;;
65737;SDS011;52478;51.844;6.582;2022-10-04T04:09:25;8.57;;;3.47;;
65737;SDS011;52478;51.844;6.582;2022-10-04T04:12:02;7.20;;;2.70;;
65737;SDS011;52478;51.844;6.582;2022-10-04T04:14:34;7.20;;;3.13;;
65737;SDS011;52478;51.844;6.582;2022-10-04T04:17:15;8.32;;;3.20;;
65737;SDS011;52478;51.844;6.582;2022-10-04T04:19:54;6.90;;;2.90;;
65737;SDS011;52478;51.844;6.582;2022-10-04T04:22:24;7.00;;;3.38;;
65737;SDS011;52478;51.844;6.582;2022-10-04T04:24:55;6.38;;;2.80;;
65737;SDS011;52478;51.844;6.582;2022-10-04T04:27:23;6.32;;;2.90;;
65737;SDS011;52478;51.844;6.582;2022-10-04T04:29:51;7.68;;;2.85;;
65737;SDS011;52478;51.844;6.582;2022-10-04T04:32:19;8.05;;;3.22;;
65737;SDS011;52478;51.844;6.582;2022-10-04T04:34:49;6.55;;;3.13;;
65737;SDS011;52478;51.844;6.582;2022-10-04T04:37:17;7.03;;;3.30;;
65737;SDS011;52478;51.844;6.582;2022-10-04T04:39:47;8.00;;;3.13;;
65737;SDS011;52478;51.844;6.582;2022-10-04T04:42:19;8.10;;;3.55;;
65737;SDS011;52478;51.844;6.582;2022-10-04T04:44:50;6.82;;;3.40;;
65737;SDS011;52478;51.844;6.582;2022-10-04T04:47:26;6.60;;;3.00;;
65737;SDS011;52478;51.844;6.582;2022-10-04T04:49:55;7.93;;;3.10;;
65737;SDS011;52478;51.844;6.582;2022-10-04T04:52:27;7.95;;;3.35;;
65737;SDS011;52478;51.844;6.582;2022-10-04T04:54:56;6.88;;;3.20;;
65737;SDS011;52478;51.844;6.582;2022-10-04T04:57:23;8.60;;;3.40;;
65737;SDS011;52478;51.844;6.582;2022-10-04T04:59:51;8.18;;;3.35;;
65737;SDS011;52478;51.844;6.582;2022-10-04T05:02:30;7.38;;;2.83;;
65737;SDS011;52478;51.844;6.582;2022-10-04T05:05:18;8.38;;;3.00;;
65737;SDS011;52478;51.844;6.582;2022-10-04T05:07:48;8.23;;;3.22;;
65737;SDS011;52478;51.844;6.582;2022-10-04T05:10:29;7.20;;;3.50;;
65737;SDS011;52478;51.844;6.582;2022-10-04T05:12:57;8.90;;;3.33;;
65737;SDS011;52478;51.844;6.582;2022-10-04T05:15:25;8.13;;;3.00;;
65737;SDS011;52478;51.844;6.582;2022-10-04T05:17:53;7.20;;;3.40;;
65737;SDS011;52478;51.844;6.582;2022-10-04T05:20:19;8.07;;;3.20;;
65737;SDS011;52478;51.844;6.582;2022-10-04T05:22:46;8.43;;;3.03;;
65737;SDS011;52478;51.844;6.582;2022-10-04T05:25:15;7.90;;;3.17;;
65737;SDS011;52478;51.844;6.582;2022-10-04T05:27:50;8.68;;;3.78;;
65737;SDS011;52478;51.844;6.582;2022-10-04T05:30:23;8.05;;;3.92;;
65737;SDS011;52478;51.844;6.582;2022-10-04T05:32:59;7.75;;;3.50;;
65737;SDS011;52478;51.844;6.582;2022-10-04T05:35:27;7.80;;;3.55;;
65737;SDS011;52478;51.844;6.582;2022-10-04T05:37:57;8.13;;;3.40;;
65737;SDS011;52478;51.844;6.582;2022-10-04T05:40:31;8.55;;;3.88;;
65737;SDS011;52478;51.844;6.582;2022-10-04T05:43:20;8.38;;;3.58;;
65737;SDS011;52478;51.844;6.582;2022-10-04T05:46:05;8.73;;;3.70;;
65737;SDS011;52478;51.844;6.582;2022-10-04T05:48:43;7.38;;;3.55;;
65737;SDS011;52478;51.844;6.582;2022-10-04T05:51:11;10.48;;;3.80;;
65737;SDS011;52478;51.844;6.582;2022-10-04T05:53:43;11.25;;;4.35;;
65737;SDS011;52478;51.844;6.582;2022-10-04T05:56:11;10.45;;;4.18;;
65737;SDS011;52478;51.844;6.582;2022-10-04T05:58:55;10.35;;;3.97;;
65737;SDS011;52478;51.844;6.582;2022-10-04T06:01:32;10.75;;;3.92;;
65737;SDS011;52478;51.844;6.582;2022-10-04T06:04:12;9.60;;;3.78;;
65737;SDS011;52478;51.844;6.582;2022-10-04T06:06:51;11.27;;;4.30;;
65737;SDS011;52478;51.844;6.582;2022-10-04T06:09:26;8.38;;;3.85;;
65737;SDS011;52478;51.844;6.582;2022-10-04T06:12:06;10.98;;;4.32;;
65737;SDS011;52478;51.844;6.582;2022-10-04T06:17:33;9.13;;;3.83;;
65737;SDS011;52478;51.844;6.582;2022-10-04T06:23:16;12.50;;;4.43;;
65737;SDS011;52478;51.844;6.582;2022-10-04T06:25:46;9.07;;;3.92;;
65737;SDS011;52478;51.844;6.582;2022-10-04T06:28:17;11.18;;;4.50;;
65737;SDS011;52478;51.844;6.582;2022-10-04T06:30:55;11.45;;;4.38;;
65737;SDS011;52478;51.844;6.582;2022-10-04T06:33:36;11.50;;;4.47;;
65737;SDS011;52478;51.844;6.582;2022-10-04T06:36:26;8.95;;;4.10;;
65737;SDS011;52478;51.844;6.582;2022-10-04T06:42:03;11.70;;;4.90;;
65737;SDS011;52478;51.844;6.582;2022-10-04T06:44:42;9.73;;;4.07;;
65737;SDS011;52478;51.844;6.582;2022-10-04T06:47:27;10.05;;;4.40;;
65737;SDS011;52478;51.844;6.582;2022-10-04T06:50:11;10.57;;;4.93;;
65737;SDS011;52478;51.844;6.582;2022-10-04T06:55:53;12.57;;;4.68;;
65737;SDS011;52478;51.844;6.582;2022-10-04T06:59:02;10.63;;;4.30;;
65737;SDS011;52478;51.844;6.582;2022-10-04T07:01:45;8.70;;;4.20;;
65737;SDS011;52478;51.844;6.582;2022-10-04T07:04:20;13.13;;;4.97;;
65737;SDS011;52478;51.844;6.582;2022-10-04T07:06:53;10.07;;;3.95;;
65737;SDS011;52478;51.844;6.582;2022-10-04T07:09:51;8.93;;;4.32;;
65737;SDS011;52478;51.844;6.582;2022-10-04T07:12:21;10.07;;;4.03;;
65737;SDS011;52478;51.844;6.582;2022-10-04T07:14:50;17.25;;;11.85;;
65737;SDS011;52478;51.844;6.582;2022-10-04T07:17:20;20.42;;;14.82;;
65737;SDS011;52478;51.844;6.582;2022-10-04T07:19:53;25.25;;;19.23;;
65737;SDS011;52478;51.844;6.582;2022-10-04T07:22:23;29.08;;;25.60;;
65737;SDS011;52478;51.844;6.582;2022-10-04T07:24:56;36.28;;;29.73;;
65737;SDS011;52478;51.844;6.582;2022-10-04T07:27:31;24.48;;;19.88;;
65737;SDS011;52478;51.844;6.582;2022-10-04T07:30:02;22.48;;;16.48;;
65737;SDS011;52478;51.844;6.582;2022-10-04T07:32:31;19.77;;;13.38;;
65737;SDS011;52478;51.844;6.582;2022-10-04T07:35:03;15.82;;;10.20;;
65737;SDS011;52478;51.844;6.582;2022-10-04T07:37:44;13.52;;;8.45;;
65737;SDS011;52478;51.844;6.582;2022-10-04T07:40:17;12.32;;;7.35;;
65737;SDS011;52478;51.844;6.582;2022-10-04T07:42:50;12.85;;;6.68;;
65737;SDS011;52478;51.844;6.582;2022-10-04T07:45:24;12.30;;;6.00;;
65737;SDS011;52478;51.844;6.582;2022-10-04T07:48:00;12.77;;;5.57;;
65737;SDS011;52478;51.844;6.582;2022-10-04T07:50:31;13.38;;;5.93;;
65737;SDS011;52478;51.844;6.582;2022-10-04T07:53:04;9.25;;;5.22;;
65737;SDS011;52478;51.844;6.582;2022-10-04T07:55:39;11.55;;;5.60;;
65737;SDS011;52478;51.844;6.582;2022-10-04T07:58:17;10.50;;;5.43;;
65737;SDS011;52478;51.844;6.582;2022-10-04T08:01:00;11.77;;;6.05;;
65737;SDS011;52478;51.844;6.582;2022-10-04T08:03:44;9.52;;;4.95;;
65737;SDS011;52478;51.844;6.582;2022-10-04T08:06:23;11.27;;;5.15;;
65737;SDS011;52478;51.844;6.582;2022-10-04T08:09:08;9.77;;;4.90;;
65737;SDS011;52478;51.844;6.582;2022-10-04T08:11:57;13.68;;;5.40;;
65737;SDS011;52478;51.844;6.582;2022-10-04T08:14:45;13.98;;;6.00;;
65737;SDS011;52478;51.844;6.582;2022-10-04T08:17:21;11.18;;;4.88;;
65737;SDS011;52478;51.844;6.582;2022-10-04T08:20:01;10.77;;;5.15;;
65737;SDS011;52478;51.844;6.582;2022-10-04T08:22:46;11.98;;;4.88;;
65737;SDS011;52478;51.844;6.582;2022-10-04T08:25:21;11.68;;;5.03;;
65737;SDS011;52478;51.844;6.582;2022-10-04T08:27:54;11.13;;;4.53;;
65737;SDS011;52478;51.844;6.582;2022-10-04T08:30:50;9.75;;;4.65;;
65737;SDS011;52478;51.844;6.582;2022-10-04T08:33:29;10.32;;;4.85;;
65737;SDS011;52478;51.844;6.582;2022-10-04T08:36:16;10.05;;;4.95;;
65737;SDS011;52478;51.844;6.582;2022-10-04T08:38:51;10.90;;;4.72;;
65737;SDS011;52478;51.844;6.582;2022-10-04T08:44:38;11.45;;;4.75;;
65737;SDS011;52478;51.844;6.582;2022-10-04T08:47:39;9.82;;;4.78;;
65737;SDS011;52478;51.844;6.582;2022-10-04T08:53:45;12.02;;;4.95;;
65737;SDS011;52478;51.844;6.582;2022-10-04T08:56:47;13.18;;;4.53;;
65737;SDS011;52478;51.844;6.582;2022-10-04T08:59:27;9.80;;;4.50;;
65737;SDS011;52478;51.844;6.582;2022-10-04T09:02:29;10.05;;;4.50;;
65737;SDS011;52478;51.844;6.582;2022-10-04T09:05:16;13.13;;;4.47;;
65737;SDS011;52478;51.844;6.582;2022-10-04T09:08:05;8.70;;;4.22;;
65737;SDS011;52478;51.844;6.582;2022-10-04T09:10:50;10.60;;;4.32;;
65737;SDS011;52478;51.844;6.582;2022-10-04T09:13:33;14.20;;;4.65;;
65737;SDS011;52478;51.844;6.582;2022-10-04T09:16:16;12.57;;;4.28;;
65737;SDS011;52478;51.844;6.582;2022-10-04T09:21:49;10.00;;;4.50;;
65737;SDS011;52478;51.844;6.582;2022-10-04T09:24:46;9.60;;;3.95;;
65737;SDS011;52478;51.844;6.582;2022-10-04T09:27:43;12.27;;;4.68;;
65737;SDS011;52478;51.844;6.582;2022-10-04T09:30:33;11.25;;;4.60;;
65737;SDS011;52478;51.844;6.582;2022-10-04T09:33:24;11.23;;;4.63;;
65737;SDS011;52478;51.844;6.582;2022-10-04T09:36:14;11.32;;;4.30;;
65737;SDS011;52478;51.844;6.582;2022-10-04T09:42:02;11.27;;;4.63;;
65737;SDS011;52478;51.844;6.582;2022-10-04T09:44:48;10.13;;;4.15;;
65737;SDS011;52478;51.844;6.582;2022-10-04T09:47:27;9.75;;;4.10;;
65737;SDS011;52478;51.844;6.582;2022-10-04T09:50:26;10.45;;;4.72;;
65737;SDS011;52478;51.844;6.582;2022-10-04T09:53:17;10.45;;;3.92;;
65737;SDS011;52478;51.844;6.582;2022-10-04T09:59:15;9.20;;;3.90;;
65737;SDS011;52478;51.844;6.582;2022-10-04T10:02:03;10.55;;;4.10;;
65737;SDS011;52478;51.844;6.582;2022-10-04T10:04:46;11.25;;;4.35;;
65737;SDS011;52478;51.844;6.582;2022-10-04T10:07:24;8.98;;;3.90;;
65737;SDS011;52478;51.844;6.582;2022-10-04T10:10:04;9.85;;;4.00;;
65737;SDS011;52478;51.844;6.582;2022-10-04T10:16:10;11.63;;;4.10;;
65737;SDS011;52478;51.844;6.582;2022-10-04T10:19:02;10.80;;;4.10;;
65737;SDS011;52478;51.844;6.582;2022-10-04T10:21:48;10.60;;;4.22;;
65737;SDS011;52478;51.844;6.582;2022-10-04T10:24:31;10.05;;;3.95;;
65737;SDS011;52478;51.844;6.582;2022-10-04T10:30:19;11.20;;;4.18;;
65737;SDS011;52478;51.844;6.582;2022-10-04T10:33:00;9.50;;;3.90;;
65737;SDS011;52478;51.844;6.582;2022-10-04T10:38:55;11.10;;;4.03;;
65737;SDS011;52478;51.844;6.582;2022-10-04T10:41:38;10.50;;;4.03;;
65737;SDS011;52478;51.844;6.582;2022-10-04T10:44:21;8.93;;;3.63;;
65737;SDS011;52478;51.844;6.582;2022-10-04T10:47:03;9.43;;;3.83;;
65737;SDS011;52478;51.844;6.582;2022-10-04T10:52:37;10.63;;;4.03;;
65737;SDS011;52478;51.844;6.582;2022-10-04T10:55:40;10.50;;;3.50;;
65737;SDS011;52478;51.844;6.582;2022-10-04T11:01:50;8.75;;;3.33;;
65737;SDS011;52478;51.844;6.582;2022-10-04T11:04:42;9.38;;;3.58;;
65737;SDS011;52478;51.844;6.582;2022-10-04T11:07:32;7.57;;;3.65;;
65737;SDS011;52478;51.844;6.582;2022-10-04T11:19:43;7.07;;;3.60;;
65737;SDS011;52478;51.844;6.582;2022-10-04T11:22:32;9.20;;;3.35;;
65737;SDS011;52478;51.844;6.582;2022-10-04T11:28:35;9.52;;;3.55;;
65737;SDS011;52478;51.844;6.582;2022-10-04T11:31:29;7.63;;;3.22;;
65737;SDS011;52478;51.844;6.582;2022-10-04T11:37:16;7.45;;;3.38;;
65737;SDS011;52478;51.844;6.582;2022-10-04T11:39:52;10.45;;;3.42;;
65737;SDS011;52478;51.844;6.582;2022-10-04T11:42:39;7.80;;;3.70;;
65737;SDS011;52478;51.844;6.582;2022-10-04T11:45:29;6.88;;;3.10;;
65737;SDS011;52478;51.844;6.582;2022-10-04T11:48:21;8.55;;;3.60;;
65737;SDS011;52478;51.844;6.582;2022-10-04T11:54:29;10.02;;;3.85;;
65737;SDS011;52478;51.844;6.582;2022-10-04T11:57:23;10.20;;;3.88;;
65737;SDS011;52478;51.844;6.582;2022-10-04T11:59:58;10.25;;;3.38;;
65737;SDS011;52478;51.844;6.582;2022-10-04T12:05:47;7.97;;;3.15;;
65737;SDS011;52478;51.844;6.582;2022-10-04T12:11:38;10.02;;;3.35;;
65737;SDS011;52478;51.844;6.582;2022-10-04T12:14:41;9.32;;;3.60;;
65737;SDS011;52478;51.844;6.582;2022-10-04T12:17:33;7.93;;;3.38;;
65737;SDS011;52478;51.844;6.582;2022-10-04T12:20:39;9.02;;;3.58;;
65737;SDS011;52478;51.844;6.582;2022-10-04T12:26:33;8.30;;;3.25;;
65737;SDS011;52478;51.844;6.582;2022-10-04T12:32:25;8.63;;;3.22;;
65737;SDS011;52478;51.844;6.582;2022-10-04T12:35:01;8.23;;;3.22;;
65737;SDS011;52478;51.844;6.582;2022-10-04T12:37:38;8.60;;;3.03;;
65737;SDS011;52478;51.844;6.582;2022-10-04T12:40:18;7.53;;;3.22;;
65737;SDS011;52478;51.844;6.582;2022-10-04T12:42:56;7.78;;;3.63;;
65737;SDS011;52478;51.844;6.582;2022-10-04T12:51:24;7.97;;;3.22;;
65737;SDS011;52478;51.844;6.582;2022-10-04T12:54:00;7.70;;;3.25;;
65737;SDS011;52478;51.844;6.582;2022-10-04T12:56:41;9.35;;;3.38;;
65737;SDS011;52478;51.844;6.582;2022-10-04T12:59:19;8.90;;;3.55;;
65737;SDS011;52478;51.844;6.582;2022-10-04T13:01:58;7.25;;;3.53;;
65737;SDS011;52478;51.844;6.582;2022-10-04T13:04:33;7.90;;;3.80;;
65737;SDS011;52478;51.844;6.582;2022-10-04T13:07:20;8.60;;;3.53;;
65737;SDS011;52478;51.844;6.582;2022-10-04T13:10:02;8.43;;;3.13;;
65737;SDS011;52478;51.844;6.582;2022-10-04T13:12:58;8.18;;;3.10;;
65737;SDS011;52478;51.844;6.582;2022-10-04T13:15:38;8.52;;;3.65;;
65737;SDS011;52478;51.844;6.582;2022-10-04T13:18:11;8.27;;;3.28;;
65737;SDS011;52478;51.844;6.582;2022-10-04T13:20:50;8.48;;;3.30;;
65737;SDS011;52478;51.844;6.582;2022-10-04T13:23:38;7.47;;;3.08;;
65737;SDS011;52478;51.844;6.582;2022-10-04T13:26:22;7.70;;;3.33;;
65737;SDS011;52478;51.844;6.582;2022-10-04T13:29:10;8.98;;;3.67;;
65737;SDS011;52478;51.844;6.582;2022-10-04T13:31:48;9.35;;;3.20;;
65737;SDS011;52478;51.844;6.582;2022-10-04T13:34:23;10.43;;;3.75;;
65737;SDS011;52478;51.844;6.582;2022-10-04T13:36:59;11.65;;;3.75;;
65737;SDS011;52478;51.844;6.582;2022-10-04T13:39:44;9.20;;;3.47;;
65737;SDS011;52478;51.844;6.582;2022-10-04T13:42:21;9.15;;;3.70;;
65737;SDS011;52478;51.844;6.582;2022-10-04T13:45:06;8.82;;;3.55;;
65737;SDS011;52478;51.844;6.582;2022-10-04T13:47:59;8.27;;;3.22;;
65737;SDS011;52478;51.844;6.582;2022-10-04T13:50:50;6.78;;;3.10;;
65737;SDS011;52478;51.844;6.582;2022-10-04T13:53:29;7.93;;;3.08;;
65737;SDS011;52478;51.844;6.582;2022-10-04T13:56:36;8.18;;;3.10;;
65737;SDS011;52478;51.844;6.582;2022-10-04T13:59:21;8.50;;;3.22;;
65737;SDS011;52478;51.844;6.582;2022-10-04T14:02:08;8.20;;;3.00;;
65737;SDS011;52478;51.844;6.582;2022-10-04T14:05:02;9.40;;;3.20;;
65737;SDS011;52478;51.844;6.582;2022-10-04T14:07:56;9.68;;;3.47;;
65737;SDS011;52478;51.844;6.582;2022-10-04T14:10:54;8.88;;;3.15;;
65737;SDS011;52478;51.844;6.582;2022-10-04T14:13:45;7.28;;;3.10;;
65737;SDS011;52478;51.844;6.582;2022-10-04T14:19:29;6.70;;;2.80;;
65737;SDS011;52478;51.844;6.582;2022-10-04T14:22:13;7.88;;;3.10;;
65737;SDS011;52478;51.844;6.582;2022-10-04T14:27:49;6.88;;;2.90;;
65737;SDS011;52478;51.844;6.582;2022-10-04T14:30:39;8.60;;;2.88;;
65737;SDS011;52478;51.844;6.582;2022-10-04T14:33:30;7.55;;;3.00;;
65737;SDS011;52478;51.844;6.582;2022-10-04T14:36:18;7.15;;;2.85;;
65737;SDS011;52478;51.844;6.582;2022-10-04T14:39:05;8.07;;;3.10;;
65737;SDS011;52478;51.844;6.582;2022-10-04T14:45:03;8.60;;;3.00;;
65737;SDS011;52478;51.844;6.582;2022-10-04T14:50:53;6.75;;;3.00;;
65737;SDS011;52478;51.844;6.582;2022-10-04T14:53:32;7.25;;;2.67;;
65737;SDS011;52478;51.844;6.582;2022-10-04T14:59:08;7.00;;;2.90;;
65737;SDS011;52478;51.844;6.582;2022-10-04T15:02:07;7.38;;;2.90;;
65737;SDS011;52478;51.844;6.582;2022-10-04T15:04:59;8.10;;;3.03;;
65737;SDS011;52478;51.844;6.582;2022-10-04T15:07:34;7.78;;;2.88;;
65737;SDS011;52478;51.844;6.582;2022-10-04T15:10:04;8.63;;;3.05;;
65737;SDS011;52478;51.844;6.582;2022-10-04T15:12:42;8.73;;;3.15;;
65737;SDS011;52478;51.844;6.582;2022-10-04T15:18:28;8.38;;;2.72;;
65737;SDS011;52478;51.844;6.582;2022-10-04T15:21:02;6.38;;;2.90;;
65737;SDS011;52478;51.844;6.582;2022-10-04T15:29:16;7.45;;;3.05;;
65737;SDS011;52478;51.844;6.582;2022-10-04T15:31:51;9.77;;;2.97;;
65737;SDS011;52478;51.844;6.582;2022-10-04T15:34:29;6.63;;;2.83;;
65737;SDS011;52478;51.844;6.582;2022-10-04T15:37:06;6.18;;;2.72;;
65737;SDS011;52478;51.844;6.582;2022-10-04T15:39:53;8.35;;;2.85;;
65737;SDS011;52478;51.844;6.582;2022-10-04T15:42:28;7.93;;;3.05;;
65737;SDS011;52478;51.844;6.582;2022-10-04T15:45:18;6.93;;;2.83;;
65737;SDS011;52478;51.844;6.582;2022-10-04T15:48:00;7.13;;;2.42;;
65737;SDS011;52478;51.844;6.582;2022-10-04T15:50:38;7.72;;;3.05;;
65737;SDS011;52478;51.844;6.582;2022-10-04T15:53:11;7.20;;;2.72;;
65737;SDS011;52478;51.844;6.582;2022-10-04T15:56:04;8.40;;;2.78;;
65737;SDS011;52478;51.844;6.582;2022-10-04T15:58:48;7.60;;;2.85;;
65737;SDS011;52478;51.844;6.582;2022-10-04T16:01:33;7.53;;;2.80;;
65737;SDS011;52478;51.844;6.582;2022-10-04T16:04:18;9.15;;;3.30;;
65737;SDS011;52478;51.844;6.582;2022-10-04T16:06:55;7.30;;;3.33;;
65737;SDS011;52478;51.844;6.582;2022-10-04T16:09:27;7.93;;;2.55;;
65737;SDS011;52478;51.844;6.582;2022-10-04T16:12:04;6.35;;;2.67;;
65737;SDS011;52478;51.844;6.582;2022-10-04T16:20:54;7.55;;;3.20;;
65737;SDS011;52478;51.844;6.582;2022-10-04T16:23:30;6.95;;;2.80;;
65737;SDS011;52478;51.844;6.582;2022-10-04T16:25:58;6.85;;;2.90;;
65737;SDS011;52478;51.844;6.582;2022-10-04T16:31:36;7.25;;;3.03;;
65737;SDS011;52478;51.844;6.582;2022-10-04T16:37:16;7.35;;;2.80;;
65737;SDS011;52478;51.844;6.582;2022-10-04T16:39:51;7.10;;;3.00;;
65737;SDS011;52478;51.844;6.582;2022-10-04T16:42:28;7.43;;;3.33;;
65737;SDS011;52478;51.844;6.582;2022-10-04T16:48:03;6.68;;;2.63;;
65737;SDS011;52478;51.844;6.582;2022-10-04T16:50:48;6.78;;;2.85;;
65737;SDS011;52478;51.844;6.582;2022-10-04T16:53:41;10.43;;;3.10;;
65737;SDS011;52478;51.844;6.582;2022-10-04T16:56:15;8.88;;;3.00;;
65737;SDS011;52478;51.844;6.582;2022-10-04T16:58:48;8.75;;;3.05;;
65737;SDS011;52478;51.844;6.582;2022-10-04T17:01:28;7.95;;;2.92;;
65737;SDS011;52478;51.844;6.582;2022-10-04T17:04:08;9.40;;;3.33;;
65737;SDS011;52478;51.844;6.582;2022-10-04T17:06:53;8.27;;;2.85;;
65737;SDS011;52478;51.844;6.582;2022-10-04T17:09:25;7.28;;;2.92;;
65737;SDS011;52478;51.844;6.582;2022-10-04T17:12:00;7.22;;;2.90;;
65737;SDS011;52478;51.844;6.582;2022-10-04T17:14:49;7.60;;;2.90;;
65737;SDS011;52478;51.844;6.582;2022-10-04T17:17:22;17.15;;;4.72;;
65737;SDS011;52478;51.844;6.582;2022-10-04T17:20:01;14.85;;;4.55;;
65737;SDS011;52478;51.844;6.582;2022-10-04T17:22:36;17.80;;;4.70;;
65737;SDS011;52478;51.844;6.582;2022-10-04T17:25:17;16.40;;;4.55;;
65737;SDS011;52478;51.844;6.582;2022-10-04T17:27:55;14.13;;;4.00;;
65737;SDS011;52478;51.844;6.582;2022-10-04T17:30:25;8.55;;;3.45;;
65737;SDS011;52478;51.844;6.582;2022-10-04T17:38:42;10.90;;;3.10;;
65737;SDS011;52478;51.844;6.582;2022-10-04T17:41:20;9.18;;;3.50;;
65737;SDS011;52478;51.844;6.582;2022-10-04T17:44:09;9.13;;;3.05;;
65737;SDS011;52478;51.844;6.582;2022-10-04T17:46:49;7.45;;;3.35;;
65737;SDS011;52478;51.844;6.582;2022-10-04T17:49:25;12.15;;;4.10;;
65737;SDS011;52478;51.844;6.582;2022-10-04T17:52:18;12.98;;;4.47;;
65737;SDS011;52478;51.844;6.582;2022-10-04T17:55:10;13.05;;;4.80;;
65737;SDS011;52478;51.844;6.582;2022-10-04T17:57:43;13.02;;;4.25;;
65737;SDS011;52478;51.844;6.582;2022-10-04T18:00:16;11.77;;;4.63;;
65737;SDS011;52478;51.844;6.582;2022-10-04T18:02:54;13.77;;;4.85;;
65737;SDS011;52478;51.844;6.582;2022-10-04T18:05:27;11.70;;;4.65;;
65737;SDS011;52478;51.844;6.582;2022-10-04T18:07:56;10.35;;;4.50;;